Kezdőlap
METAR-TAF:

METAR-TAF

Repülőterek :

Viktória-vízesés, Zimbabwe

földrajzi szélesség: 18-06S, földrajzi hosszúság: 025-51E, magasság: 1061 m

Jelenlegi meteorológiai megfigyelések

A jelentés 13 órával és 32 perccel ezelõtt készült, 10:00 UTC
Kelet-északkeleti szél 10 kt, északkeleti és kelet-délkeleti között változik
Hőmérséklet 25°C
Páratartalom 39%
Légköri nyomás 1020 hPa
Látótávolság 10 km, vagy több
felhőtlen 1500 m magasságban, és nincs gomolyfelhõ

METAR: FVFA 201000Z 07010KT 040V110 CAVOK 25/10 Q1020 NOSIG

Idő: 01:32 (23:32 UTC)

Előrejelzés

A jelentés 19 órával és 32 perccel ezelõtt készült, 04:00 UTC
Az előrejelzés 20-én 06 óra UTC és 21-én 12 óra UTC között érvényes
Keleti szél 10 kt
Látótávolság 10 km, vagy több
felhőtlen 1500 m magasságban, és nincs gomolyfelhõ

TAF: FVFA 200400Z 2006/2112 09010KT CAVOK

Meteorológiai megfigyelések és előrejelzések több, mint 4000 repülőtéren (METAR és TAF jelentéseket).

A térképen piros és sárga pontok jelzik az elérhető meteorológiai állomásokat.

Mozgassa az egeret a pont fölött, hogy megjelenjen az állomás neve.

Azután kattintson az időjárási megfigyelések és előrejelzések megtekintéséhez.

A térkép megváltoztatása: kattintson a fekete keresztel jelölt zöld gombra ráközelítéshez, a vonallal jelölt zöld gombra távolításhoz, vagy a zöld nyilakra a szomszédos térképek eléréséhez.


METAR-TAF: